Victory, Vermont
Current Conditions -  °F | °C
As of 2:35 PM on Monday 22 Dec 2014 (Local Time) from KCDA Reporting Station
Overcast Overcast  
Wind Chill: -3°   Ceiling: 3200
Heat Index:   Visibility: 10mi
Dew Point: -4°   Wind: 5mph
Humidity: 75%   Direction: 60°ENE
Pressure: 30.3"   Gusts: NA
Location:  44.5627°N, 71.7775°W
Report Text: KCDA 221935Z AUTO 06004KT 10SM SCT026 OVC032 00/M04 A3030 RMK AO2 T10041043
Loading
Personal Weather Stations






























Interactive Weather Map New forecast layout! Learn more

10-Day Weather Forecast

Advertisements
Track Severe Weather on mobile